Wetterstation Oberdrees
Wetterdaten: aktuell Freitag, 20.04.2018 10:10
Datum Zeit Temp. A. Feuchte A. Luftdruck Regen Wind Richtung Richtung Taupunkt Windchill Windben
20.04.2018 10:10 24,6 C 54 % 1012 hPa 0,0 l/m 0,0 km/h (0 Bft) N-NW 337 14,7 C 24,6 C 0,0 km/h (0 Bft)
20.04.2018 10:00 24,3 C 56 % 1012 hPa 0,0 l/m 0,0 km/h (0 Bft) N-NO 22 14,9 C 24,3 C 2,2 km/h (1 Bft)
20.04.2018 09:50 23,5 C 59 % 1012 hPa 0,0 l/m 0,0 km/h (0 Bft) N 360 15,0 C 23,5 C 0,0 km/h (0 Bft)
20.04.2018 09:40 22,1 C 62 % 1012 hPa 0,0 l/m 0,0 km/h (0 Bft) N-NO 22 14,5 C 22,1 C 0,0 km/h (0 Bft)
20.04.2018 09:30 20,1 C 65 % 1012 hPa 0,0 l/m 0,0 km/h (0 Bft) N-NO 22 13,3 C 20,1 C 0,0 km/h (0 Bft)
20.04.2018 09:20 17,6 C 67 % 1012 hPa 0,0 l/m 0,0 km/h (0 Bft) NO 45 11,4 C 17,6 C 2,2 km/h (1 Bft)
20.04.2018 09:10 16,0 C 67 % 1012 hPa 0,0 l/m 0,0 km/h (0 Bft) NO 45 9,9 C 16,0 C 0,0 km/h (0 Bft)
20.04.2018 09:00 15,2 C 69 % 1012 hPa 0,0 l/m 0,0 km/h (0 Bft) O-NO 67 9,6 C 15,2 C 0,0 km/h (0 Bft)
20.04.2018 08:50 14,5 C 69 % 1012 hPa 0,0 l/m 0,0 km/h (0 Bft) O-SO 112 8,9 C 14,5 C 0,0 km/h (0 Bft)
20.04.2018 08:40 13,8 C 71 % 1012 hPa 0,0 l/m 0,0 km/h (0 Bft) O-NO 67 8,6 C 13,8 C 0,0 km/h (0 Bft)
20.04.2018 08:30 13,4 C 71 % 1012 hPa 0,0 l/m 0,0 km/h (0 Bft) S-SO 157 8,3 C 13,4 C 0,0 km/h (0 Bft)
20.04.2018 08:20 12,9 C 71 % 1012 hPa 0,0 l/m 0,0 km/h (0 Bft) W-NW 292 7,8 C 12,9 C 0,0 km/h (0 Bft)
20.04.2018 08:10 12,5 C 71 % 1012 hPa 0,0 l/m 0,0 km/h (0 Bft) W-NW 292 7,4 C 12,5 C 0,0 km/h (0 Bft)
20.04.2018 08:00 12,3 C 71 % 1012 hPa 0,0 l/m 0,0 km/h (0 Bft) NW 315 7,2 C 12,3 C 0,0 km/h (0 Bft)
20.04.2018 07:50 12,0 C 71 % 1012 hPa 0,0 l/m 0,0 km/h (0 Bft) NW 315 6,9 C 12,0 C 0,0 km/h (0 Bft)
20.04.2018 07:40 11,6 C 71 % 1012 hPa 0,0 l/m 0,0 km/h (0 Bft) W 270 6,5 C 11,6 C 0,0 km/h (0 Bft)
20.04.2018 07:30 11,4 C 71 % 1012 hPa 0,0 l/m 0,0 km/h (0 Bft) W 270 6,3 C 11,4 C 0,0 km/h (0 Bft)
20.04.2018 07:20 11,2 C 71 % 1012 hPa 0,0 l/m 0,0 km/h (0 Bft) W 270 6,1 C 11,2 C 0,0 km/h (0 Bft)
20.04.2018 07:10 11,2 C 71 % 1012 hPa 0,0 l/m 0,0 km/h (0 Bft) SW 225 6,1 C 11,2 C 0,0 km/h (0 Bft)
20.04.2018 07:00 11,1 C 70 % 1012 hPa 0,0 l/m 0,0 km/h (0 Bft) SW 225 5,8 C 11,1 C 0,0 km/h (0 Bft)
20.04.2018 06:50 11,2 C 70 % 1012 hPa 0,0 l/m 0,0 km/h (0 Bft) O-SO 112 5,9 C 11,2 C 0,0 km/h (0 Bft)
20.04.2018 06:40 11,2 C 70 % 1012 hPa 0,0 l/m 0,0 km/h (0 Bft) S-SO 157 5,9 C 11,2 C 0,0 km/h (0 Bft)
20.04.2018 06:30 11,3 C 70 % 1012 hPa 0,0 l/m 0,0 km/h (0 Bft) S-SW 202 6,0 C 11,3 C 0,0 km/h (0 Bft)
20.04.2018 06:20 11,4 C 69 % 1011 hPa 0,0 l/m 0,0 km/h (0 Bft) SW 225 5,9 C 11,4 C 0,0 km/h (0 Bft)
20.04.2018 06:10 11,5 C 69 % 1011 hPa 0,0 l/m 0,0 km/h (0 Bft) SO 135 6,0 C 11,5 C 0,0 km/h (0 Bft)
20.04.2018 06:00 11,5 C 69 % 1012 hPa 0,0 l/m 0,0 km/h (0 Bft) S-SW 202 6,0 C 11,5 C 0,0 km/h (0 Bft)
20.04.2018 05:50 11,5 C 69 % 1012 hPa 0,0 l/m 0,0 km/h (0 Bft) SW 225 6,0 C 11,5 C 0,0 km/h (0 Bft)
20.04.2018 05:40 11,5 C 69 % 1012 hPa 0,0 l/m 0,0 km/h (0 Bft) S-SW 202 6,0 C 11,5 C 0,0 km/h (0 Bft)
20.04.2018 05:30 11,5 C 69 % 1012 hPa 0,0 l/m 0,0 km/h (0 Bft) S 180 6,0 C 11,5 C 0,0 km/h (0 Bft)
20.04.2018 05:20 11,6 C 69 % 1012 hPa 0,0 l/m 0,0 km/h (0 Bft) SW 225 6,1 C 11,6 C 0,0 km/h (0 Bft)
20.04.2018 05:10 11,7 C 69 % 1012 hPa 0,0 l/m 0,0 km/h (0 Bft) O-SO 112 6,2 C 11,7 C 0,0 km/h (0 Bft)
20.04.2018 05:00 11,8 C 68 % 1012 hPa 0,0 l/m 0,0 km/h (0 Bft) W-SW 247 6,1 C 11,8 C 0,0 km/h (0 Bft)
20.04.2018 04:50 11,9 C 67 % 1012 hPa 0,0 l/m 0,0 km/h (0 Bft) O-SO 112 6,0 C 11,9 C 0,0 km/h (0 Bft)
20.04.2018 04:40 12,0 C 67 % 1012 hPa 0,0 l/m 0,0 km/h (0 Bft) W-SW 247 6,1 C 12,0 C 0,0 km/h (0 Bft)
20.04.2018 04:30 12,2 C 66 % 1012 hPa 0,0 l/m 0,0 km/h (0 Bft) SW 225 6,0 C 12,2 C 0,0 km/h (0 Bft)
20.04.2018 04:20 12,4 C 66 % 1012 hPa 0,0 l/m 0,0 km/h (0 Bft) W-SW 247 6,2 C 12,4 C 0,0 km/h (0 Bft)
20.04.2018 04:10 12,5 C 66 % 1012 hPa 0,0 l/m 0,0 km/h (0 Bft) S-SW 202 6,3 C 12,5 C 0,0 km/h (0 Bft)
20.04.2018 04:00 12,6 C 65 % 1012 hPa 0,0 l/m 0,0 km/h (0 Bft) S-SO 157 6,2 C 12,6 C 0,0 km/h (0 Bft)
20.04.2018 03:50 12,7 C 65 % 1012 hPa 0,0 l/m 0,0 km/h (0 Bft) SW 225 6,3 C 12,7 C 0,0 km/h (0 Bft)
20.04.2018 03:40 12,8 C 65 % 1012 hPa 0,0 l/m 0,0 km/h (0 Bft) S 180 6,4 C 12,8 C 0,0 km/h (0 Bft)
20.04.2018 03:30 12,9 C 64 % 1012 hPa 0,0 l/m 0,0 km/h (0 Bft) SW 225 6,3 C 12,9 C 0,0 km/h (0 Bft)
20.04.2018 03:20 13,1 C 64 % 1012 hPa 0,0 l/m 0,0 km/h (0 Bft) SO 135 6,4 C 13,1 C 0,0 km/h (0 Bft)
20.04.2018 03:10 13,2 C 64 % 1012 hPa 0,0 l/m 0,0 km/h (0 Bft) N 360 6,5 C 13,2 C 0,0 km/h (0 Bft)
20.04.2018 03:00 13,3 C 64 % 1012 hPa 0,0 l/m 0,0 km/h (0 Bft) SW 225 6,6 C 13,3 C 0,0 km/h (0 Bft)
20.04.2018 02:50 13,5 C 63 % 1012 hPa 0,0 l/m 0,0 km/h (0 Bft) S-SO 157 6,6 C 13,5 C 0,0 km/h (0 Bft)
20.04.2018 02:40 13,7 C 62 % 1013 hPa 0,0 l/m 0,0 km/h (0 Bft) S-SO 157 6,6 C 13,7 C 0,0 km/h (0 Bft)
20.04.2018 02:30 13,8 C 62 % 1013 hPa 0,0 l/m 0,0 km/h (0 Bft) S 180 6,6 C 13,8 C 0,0 km/h (0 Bft)
20.04.2018 02:20 13,9 C 62 % 1013 hPa 0,0 l/m 0,0 km/h (0 Bft) SW 225 6,7 C 13,9 C 0,0 km/h (0 Bft)
20.04.2018 02:10 14,1 C 61 % 1013 hPa 0,0 l/m 0,0 km/h (0 Bft) SW 225 6,7 C 14,1 C 0,0 km/h (0 Bft)
20.04.2018 02:00 14,2 C 61 % 1013 hPa 0,0 l/m 0,0 km/h (0 Bft) N-NO 22 6,8 C 14,2 C 0,0 km/h (0 Bft)
20.04.2018 01:50 14,2 C 61 % 1013 hPa 0,0 l/m 0,0 km/h (0 Bft) N 360 6,8 C 14,2 C 0,0 km/h (0 Bft)
20.04.2018 01:40 14,2 C 60 % 1013 hPa 0,0 l/m 0,0 km/h (0 Bft) SW 225 6,5 C 14,2 C 0,0 km/h (0 Bft)
20.04.2018 01:30 14,8 C 59 % 1013 hPa 0,0 l/m 0,0 km/h (0 Bft) SW 225 6,9 C 14,8 C 0,0 km/h (0 Bft)
20.04.2018 01:20 15,1 C 59 % 1013 hPa 0,0 l/m 0,0 km/h (0 Bft) SW 225 7,1 C 15,1 C 0,0 km/h (0 Bft)
20.04.2018 01:10 15,5 C 58 % 1013 hPa 0,0 l/m 0,0 km/h (0 Bft) SW 225 7,3 C 15,5 C 0,0 km/h (0 Bft)
20.04.2018 01:00 15,8 C 57 % 1013 hPa 0,0 l/m 0,0 km/h (0 Bft) S-SW 202 7,3 C 15,8 C 0,0 km/h (0 Bft)
20.04.2018 00:50 16,2 C 56 % 1013 hPa 0,0 l/m 0,0 km/h (0 Bft) SW 225 7,4 C 16,2 C 0,0 km/h (0 Bft)
20.04.2018 00:40 16,4 C 55 % 1013 hPa 0,0 l/m 0,0 km/h (0 Bft) O 90 7,3 C 16,4 C 0,0 km/h (0 Bft)
20.04.2018 00:30 16,4 C 55 % 1013 hPa 0,0 l/m 0,0 km/h (0 Bft) O 90 7,3 C 16,4 C 0,0 km/h (0 Bft)
20.04.2018 00:20 16,5 C 55 % 1013 hPa 0,0 l/m 0,0 km/h (0 Bft) O 90 7,4 C 16,5 C 0,0 km/h (0 Bft)
20.04.2018 00:10 17,0 C 53 % 1013 hPa 0,0 l/m 0,0 km/h (0 Bft) NW 315 7,4 C 17,0 C 0,0 km/h (0 Bft)
20.04.2018 00:00 17,5 C 52 % 1013 hPa 0,0 l/m 0,0 km/h (0 Bft) N-NW 337 7,5 C 17,5 C 0,0 km/h (0 Bft)
19.04.2018 23:50 17,7 C 52 % 1013 hPa 0,0 l/m 0,0 km/h (0 Bft) S-SW 202 7,7 C 17,7 C 0,0 km/h (0 Bft)
19.04.2018 23:40 17,3 C 54 % 1013 hPa 0,0 l/m 0,0 km/h (0 Bft) O-NO 67 7,9 C 17,3 C 0,0 km/h (0 Bft)
19.04.2018 23:30 17,2 C 54 % 1013 hPa 0,0 l/m 0,0 km/h (0 Bft) O 90 7,8 C 17,2 C 0,0 km/h (0 Bft)
19.04.2018 23:20 17,4 C 53 % 1013 hPa 0,0 l/m 0,0 km/h (0 Bft) O 90 7,7 C 17,4 C 0,0 km/h (0 Bft)
19.04.2018 23:10 17,8 C 52 % 1013 hPa 0,0 l/m 0,0 km/h (0 Bft) O 90 7,8 C 17,8 C 0,0 km/h (0 Bft)
19.04.2018 23:00 18,1 C 51 % 1013 hPa 0,0 l/m 0,0 km/h (0 Bft) S-SW 202 7,8 C 18,1 C 0,0 km/h (0 Bft)
19.04.2018 22:50 18,3 C 50 % 1013 hPa 0,0 l/m 0,0 km/h (0 Bft) O 90 7,7 C 18,3 C 0,0 km/h (0 Bft)
19.04.2018 22:40 18,4 C 50 % 1013 hPa 0,0 l/m 0,0 km/h (0 Bft) SW 225 7,8 C 18,4 C 0,0 km/h (0 Bft)
19.04.2018 22:30 18,6 C 50 % 1013 hPa 0,0 l/m 0,0 km/h (0 Bft) O-SO 112 8,0 C 18,6 C 0,0 km/h (0 Bft)
19.04.2018 22:20 19,0 C 48 % 1013 hPa 0,0 l/m 0,0 km/h (0 Bft) O-NO 67 7,7 C 19,0 C 0,0 km/h (0 Bft)
19.04.2018 22:10 19,6 C 47 % 1013 hPa 0,0 l/m 0,0 km/h (0 Bft) O 90 8,0 C 19,6 C 0,0 km/h (0 Bft)
19.04.2018 22:00 19,4 C 47 % 1013 hPa 0,0 l/m 0,0 km/h (0 Bft) S-SW 202 7,8 C 19,4 C 0,0 km/h (0 Bft)
19.04.2018 21:50 19,3 C 47 % 1013 hPa 0,0 l/m 0,0 km/h (0 Bft) O 90 7,7 C 19,3 C 0,0 km/h (0 Bft)
19.04.2018 21:40 19,5 C 47 % 1013 hPa 0,0 l/m 0,0 km/h (0 Bft) O 90 7,9 C 19,5 C 0,0 km/h (0 Bft)
19.04.2018 21:30 19,8 C 47 % 1013 hPa 0,0 l/m 0,0 km/h (0 Bft) O 90 8,2 C 19,8 C 0,0 km/h (0 Bft)
19.04.2018 21:20 20,4 C 46 % 1013 hPa 0,0 l/m 0,0 km/h (0 Bft) O 90 8,4 C 20,4 C 0,0 km/h (0 Bft)
19.04.2018 21:10 21,1 C 45 % 1013 hPa 0,0 l/m 0,0 km/h (0 Bft) SW 225 8,7 C 21,1 C 0,0 km/h (0 Bft)
19.04.2018 21:00 21,7 C 45 % 1013 hPa 0,0 l/m 0,0 km/h (0 Bft) SW 225 9,2 C 21,7 C 0,0 km/h (0 Bft)
19.04.2018 20:50 22,4 C 43 % 1013 hPa 0,0 l/m 0,0 km/h (0 Bft) SW 225 9,2 C 22,4 C 0,0 km/h (0 Bft)
19.04.2018 20:40 23,6 C 41 % 1013 hPa 0,0 l/m 0,0 km/h (0 Bft) SW 225 9,6 C 23,6 C 0,0 km/h (0 Bft)
19.04.2018 20:30 24,4 C 40 % 1013 hPa 0,0 l/m 0,0 km/h (0 Bft) SW 225 9,9 C 24,4 C 0,0 km/h (0 Bft)
19.04.2018 20:20 25,1 C 38 % 1013 hPa 0,0 l/m 0,0 km/h (0 Bft) SW 225 9,8 C 25,1 C 0,0 km/h (0 Bft)
19.04.2018 20:10 25,6 C 35 % 1013 hPa 0,0 l/m 0,0 km/h (0 Bft) SW 225 9,0 C 25,6 C 0,0 km/h (0 Bft)
19.04.2018 20:00 26,0 C 34 % 1013 hPa 0,0 l/m 0,0 km/h (0 Bft) S-SO 157 8,9 C 26,0 C 0,0 km/h (0 Bft)
19.04.2018 19:50 26,3 C 34 % 1013 hPa 0,0 l/m 0,4 km/h (0 Bft) S-SW 202 9,2 C 26,3 C 2,2 km/h (1 Bft)
19.04.2018 19:40 26,5 C 33 % 1013 hPa 0,0 l/m 0,0 km/h (0 Bft) O 90 8,9 C 26,5 C 0,0 km/h (0 Bft)
19.04.2018 19:30 26,9 C 32 % 1013 hPa 0,0 l/m 0,0 km/h (0 Bft) W-NW 292 8,8 C 26,9 C 0,0 km/h (0 Bft)
19.04.2018 19:20 27,1 C 32 % 1013 hPa 0,0 l/m 0,7 km/h (0 Bft) W-SW 247 9,0 C 27,1 C 4,3 km/h (1 Bft)
19.04.2018 19:10 27,3 C 31 % 1013 hPa 0,0 l/m 0,4 km/h (0 Bft) SO 135 8,7 C 27,3 C 2,2 km/h (1 Bft)
19.04.2018 19:00 27,5 C 30 % 1013 hPa 0,0 l/m 3,2 km/h (1 Bft) O 90 8,4 C 27,5 C 4,3 km/h (1 Bft)
19.04.2018 18:50 27,9 C 31 % 1013 hPa 0,0 l/m 0,0 km/h (0 Bft) NO 45 9,2 C 27,9 C 0,0 km/h (0 Bft)
19.04.2018 18:40 27,8 C 31 % 1013 hPa 0,0 l/m 0,0 km/h (0 Bft) O-NO 67 9,1 C 27,8 C 0,0 km/h (0 Bft)
19.04.2018 18:30 28,0 C 30 % 1013 hPa 0,0 l/m 0,7 km/h (0 Bft) O-SO 112 8,8 C 28,0 C 4,3 km/h (1 Bft)
19.04.2018 18:20 28,0 C 30 % 1013 hPa 0,0 l/m 4,0 km/h (1 Bft) SO 135 8,8 C 28,0 C 6,5 km/h (2 Bft)
19.04.2018 18:10 28,0 C 30 % 1013 hPa 0,0 l/m 4,3 km/h (1 Bft) N-NO 22 8,8 C 28,0 C 8,6 km/h (2 Bft)
19.04.2018 18:00 27,9 C 29 % 1013 hPa 0,0 l/m 0,0 km/h (0 Bft) O-SO 112 8,2 C 27,9 C 0,0 km/h (0 Bft)
19.04.2018 17:50 27,8 C 29 % 1013 hPa 0,0 l/m 4,0 km/h (1 Bft) O-SO 112 8,1 C 27,8 C 6,5 km/h (2 Bft)
19.04.2018 17:40 28,0 C 30 % 1013 hPa 0,0 l/m 3,2 km/h (1 Bft) W-SW 247 8,8 C 28,0 C 6,5 km/h (2 Bft)
19.04.2018 17:30 28,0 C 30 % 1013 hPa 0,0 l/m 0,4 km/h (0 Bft) NO 45 8,8 C 28,0 C 2,2 km/h (1 Bft)
19.04.2018 17:20 28,1 C 30 % 1013 hPa 0,0 l/m 2,5 km/h (1 Bft) O 90 8,9 C 28,1 C 6,5 km/h (2 Bft)
19.04.2018 17:10 28,0 C 30 % 1013 hPa 0,0 l/m 9,7 km/h (2 Bft) O-NO 67 8,8 C 27,5 C 17,6 km/h (3 Bft)
19.04.2018 17:00 27,9 C 29 % 1013 hPa 0,0 l/m 4,0 km/h (1 Bft) O 90 8,2 C 27,9 C 4,3 km/h (1 Bft)
19.04.2018 16:50 28,0 C 29 % 1013 hPa 0,0 l/m 5,4 km/h (2 Bft) O-NO 67 8,3 C 28,0 C 11,2 km/h (2 Bft)
19.04.2018 16:40 28,2 C 31 % 1013 hPa 0,0 l/m 4,3 km/h (1 Bft) W 270 9,4 C 28,2 C 11,2 km/h (2 Bft)
19.04.2018 16:30 28,1 C 30 % 1013 hPa 0,0 l/m 5,4 km/h (2 Bft) O 90 8,9 C 28,1 C 8,6 km/h (2 Bft)
19.04.2018 16:20 28,0 C 31 % 1013 hPa 0,0 l/m 0,0 km/h (0 Bft) S-SO 157 9,3 C 28,0 C 6,5 km/h (2 Bft)
19.04.2018 16:10 28,0 C 32 % 1014 hPa 0,0 l/m 4,0 km/h (1 Bft) NO 45 9,7 C 28,0 C 13,3 km/h (3 Bft)
19.04.2018 16:00 27,8 C 31 % 1014 hPa 0,0 l/m 6,1 km/h (2 Bft) O 90 9,1 C 27,8 C 8,6 km/h (2 Bft)
19.04.2018 15:50 27,9 C 31 % 1014 hPa 0,0 l/m 2,9 km/h (1 Bft) O-NO 67 9,2 C 27,9 C 11,2 km/h (2 Bft)
19.04.2018 15:40 27,9 C 33 % 1014 hPa 0,0 l/m 2,9 km/h (1 Bft) NO 45 10,1 C 27,9 C 8,6 km/h (2 Bft)
19.04.2018 15:30 27,6 C 33 % 1014 hPa 0,0 l/m 4,7 km/h (1 Bft) O-NO 67 9,9 C 27,6 C 6,5 km/h (2 Bft)
19.04.2018 15:20 27,7 C 33 % 1014 hPa 0,0 l/m 0,0 km/h (0 Bft) NW 315 9,9 C 27,7 C 4,3 km/h (1 Bft)
19.04.2018 15:10 27,4 C 34 % 1014 hPa 0,0 l/m 5,4 km/h (2 Bft) O-NO 67 10,1 C 27,4 C 8,6 km/h (2 Bft)
19.04.2018 15:00 27,4 C 33 % 1014 hPa 0,0 l/m 4,0 km/h (1 Bft) NO 45 9,7 C 27,4 C 8,6 km/h (2 Bft)
19.04.2018 14:50 27,2 C 34 % 1015 hPa 0,0 l/m 7,2 km/h (2 Bft) O-NO 67 10,0 C 27,1 C 11,2 km/h (2 Bft)
19.04.2018 14:40 27,0 C 35 % 1015 hPa 0,0 l/m 4,3 km/h (1 Bft) O-SO 112 10,2 C 27,0 C 8,6 km/h (2 Bft)
19.04.2018 14:30 26,7 C 37 % 1015 hPa 0,0 l/m 4,7 km/h (1 Bft) O-NO 67 10,8 C 26,7 C 11,2 km/h (2 Bft)
19.04.2018 14:20 26,6 C 35 % 1015 hPa 0,0 l/m 8,3 km/h (2 Bft) O 90 9,9 C 26,2 C 13,3 km/h (3 Bft)
19.04.2018 14:10 26,7 C 37 % 1015 hPa 0,0 l/m 5,0 km/h (1 Bft) O-NO 67 10,8 C 26,7 C 8,6 km/h (2 Bft)
19.04.2018 14:00 26,6 C 38 % 1015 hPa 0,0 l/m 7,6 km/h (2 Bft) O 90 11,1 C 26,4 C 15,5 km/h (3 Bft)
19.04.2018 13:50 26,2 C 39 % 1015 hPa 0,0 l/m 2,5 km/h (1 Bft) N-NW 337 11,1 C 26,2 C 6,5 km/h (2 Bft)
19.04.2018 13:40 26,0 C 39 % 1015 hPa 0,0 l/m 9,7 km/h (2 Bft) O 90 11,0 C 25,3 C 13,3 km/h (3 Bft)
19.04.2018 13:30 26,0 C 38 % 1015 hPa 0,0 l/m 5,0 km/h (1 Bft) N-NO 22 10,6 C 26,0 C 8,6 km/h (2 Bft)
19.04.2018 13:20 26,0 C 38 % 1015 hPa 0,0 l/m 0,0 km/h (0 Bft) O-SO 112 10,6 C 26,0 C 0,0 km/h (0 Bft)
19.04.2018 13:10 25,6 C 37 % 1015 hPa 0,0 l/m 7,2 km/h (2 Bft) SO 135 9,8 C 25,4 C 13,3 km/h (3 Bft)
19.04.2018 13:00 25,6 C 37 % 1015 hPa 0,0 l/m 6,8 km/h (2 Bft) O 90 9,8 C 25,5 C 13,3 km/h (3 Bft)
19.04.2018 12:50 25,3 C 37 % 1015 hPa 0,0 l/m 8,3 km/h (2 Bft) O-SO 112 9,6 C 24,8 C 13,3 km/h (3 Bft)
19.04.2018 12:40 25,1 C 37 % 1015 hPa 0,0 l/m 5,8 km/h (2 Bft) O-NO 67 9,4 C 25,1 C 15,5 km/h (3 Bft)
19.04.2018 12:30 25,0 C 39 % 1015 hPa 0,0 l/m 10,4 km/h (2 Bft) O-NO 67 10,1 C 24,1 C 19,8 km/h (3 Bft)
19.04.2018 12:20 24,8 C 40 % 1015 hPa 0,0 l/m 1,4 km/h (1 Bft) N-NW 337 10,3 C 24,8 C 8,6 km/h (2 Bft)
19.04.2018 12:10 24,8 C 39 % 1015 hPa 0,0 l/m 5,8 km/h (2 Bft) O 90 9,9 C 24,8 C 11,2 km/h (2 Bft)
19.04.2018 12:00 24,7 C 39 % 1016 hPa 0,0 l/m 8,6 km/h (2 Bft) O-NO 67 9,8 C 24,1 C 11,2 km/h (2 Bft)
19.04.2018 11:50 24,5 C 41 % 1016 hPa 0,0 l/m 5,4 km/h (2 Bft) N-NW 337 10,4 C 24,5 C 6,5 km/h (2 Bft)
19.04.2018 11:40 24,4 C 41 % 1016 hPa 0,0 l/m 10,4 km/h (2 Bft) NO 45 10,3 C 23,4 C 15,5 km/h (3 Bft)
19.04.2018 11:30 24,2 C 42 % 1016 hPa 0,0 l/m 5,8 km/h (2 Bft) S 180 10,5 C 24,2 C 11,2 km/h (2 Bft)
19.04.2018 11:20 23,8 C 42 % 1016 hPa 0,0 l/m 5,4 km/h (2 Bft) S-SO 157 10,1 C 23,8 C 6,5 km/h (2 Bft)
19.04.2018 11:10 23,6 C 44 % 1016 hPa 0,0 l/m 0,0 km/h (0 Bft) O-NO 67 10,6 C 23,6 C 0,0 km/h (0 Bft)
19.04.2018 11:00 23,7 C 43 % 1016 hPa 0,0 l/m 4,0 km/h (1 Bft) O 90 10,4 C 23,7 C 6,5 km/h (2 Bft)
_ Min-Zeit 07:00 16:50 06:10 - 11:10 - - 07:00 07:00 11:10
Minimum _ 11,1 C 29 % 1011 hPa - 0,0 km/h (0 Bft) - - 5,8 C 11,1 C 0,0 km/h (0 Bft)
_ Max-Zeit 16:40 07:10 11:00 11:00 11:40 - - 09:50 16:40 12:30
Maximum _ 28,2 C 71 % 1016 hPa 0,0 l/m 10,4 km/h
NO (2 Bft)
- - 15,0 C 28,2 C 19,8 km/h
O-NO (3 Bft)
Durchschnitt _ 20,3 C 49 % 1013 hPa #0,0 l/m 1,8 km/h (1 Bft) O - 8,6 C 20,3 C 3,4 km/h (1 Bft)
www.klaudt.eu